Charles City, IA

10:59 AM CST on December 06, 2016 (GMT -0600)
Downtown Charles City | | Change Station

Elev 991 ft 43.07 °N, 92.67 °W | Updated 22 seconds ago

Mostly Cloudy
Mostly Cloudy
24.1 °F
Feels Like 16 °F
N
7.3
Wind Variable Wind from North

Today
High -- | Low -- °F
--% Chance of Precip.
Yesterday
High -- | Low -- °F
Precip. -- in
Pressure 29.85 in
Visibility 10.0 miles
Clouds Mostly Cloudy 1800 ft
Windchill 16 °F
Dew Point 19 °F
Humidity 81%
Rainfall 0.03 in
Snow Depth Not available.
7:28 AM 4:35 PM
Waxing Crescent, 43% visible
METAR KCCY 061655Z AUTO 27016G21KT 10SM BKN018 M05/M08 A2985 RMK AO2
Pressure 29.85 in
Visibility 10.0 miles
Clouds Mostly Cloudy 1800 ft
Windchill 16 °F
Dew Point 19 °F
Humidity 81%
Rainfall 0.03 in
Snow Depth Not available.
7:28 AM 4:35 PM
Waxing Crescent, 43% visible
METAR KCCY 061655Z AUTO 27016G21KT 10SM BKN018 M05/M08 A2985 RMK AO2

10-Day Weather Forecast

Almanac

Astronomy

Dec. 06, 2016 Rise Set
Actual Time
Civil Twilight
Nautical Twilight
Astronomical Twilight
Moon
Length of Visible Light
Length of Day
Tomorrow will be .
, % of the Moon is Illuminated

Today's Extremes

State Highs State Lows

Community

WunderPhotos

Upload Photos

1,955,983 photos uploaded!

WunderBlog® & News

Nearby

Air Quality

  Air Quality AQ Index Pollutant
Not available.

Snow Depth

Station Depth Elevation

Earthquake Activity

City Distance Mag. Time & Date
Minimum magnitude displayed is 2.5.

Coastal Water Temperatures

Place Temperature

Stations

Nearby Weather Stations

Station Location Temp. Windchill Dew Point Humidity Wind Precip. Elev Updated Type
                   

Watches & Warnings

There are currently no watches in effect.